Time;durP1;ratioP1;P1;durP2;ratioP2;P2;SDS_P1;SDS_P2;PMS_P1;PMS_P2;Temp;Humidity;BMP_temperature;BMP_pressure;BME280_temperature;BME280_humidity;BME280_pressure;Samples;Min_cycle;Max_cycle;Signal;HPM_P1;HPM_P2
2022/02/13 00:00:52;;;;;;;16.70;6.70;;;;;;;-0.51;74.32;96958.53;5071739;28;20051;-81
2022/02/13 00:03:19;;;;;;;12.98;6.55;;;;;;;-0.52;74.16;96954.22;5070760;28;20060;-78
2022/02/13 00:05:45;;;;;;;12.45;6.55;;;;;;;-0.47;74.14;96951.66;5068642;28;20056;-78
2022/02/13 00:08:12;;;;;;;12.55;6.53;;;;;;;-0.44;73.77;96939.69;5067061;28;20048;-76
2022/02/13 00:10:39;;;;;;;13.82;6.25;;;;;;;-0.45;73.66;96936.19;5068402;28;20059;-78
2022/02/13 00:13:05;;;;;;;11.98;6.40;;;;;;;-0.47;73.08;96935.63;5067385;28;20539;-80
2022/02/13 00:15:32;;;;;;;9.45;5.60;;;;;;;-0.46;73.26;96937.25;5067499;28;20052;-78
2022/02/13 00:18:00;;;;;;;13.13;6.80;;;;;;;-0.44;73.16;96932.47;5067915;28;20047;-79
2022/02/13 00:20:27;;;;;;;13.50;6.15;;;;;;;-0.40;72.65;96930.94;5067178;28;20041;-79
2022/02/13 00:22:53;;;;;;;10.93;5.78;;;;;;;-0.39;72.48;96929.91;5068348;28;20722;-78
2022/02/13 00:25:20;;;;;;;11.13;5.80;;;;;;;-0.36;71.73;96928.63;5066874;28;20052;-78
2022/02/13 00:27:47;;;;;;;12.20;5.85;;;;;;;-0.37;71.38;96930.47;5068202;28;20048;-78
2022/02/13 00:30:15;;;;;;;12.20;6.03;;;;;;;-0.40;71.03;96925.59;5066703;28;20052;-78
2022/02/13 00:32:43;;;;;;;12.75;6.22;;;;;;;-0.38;71.14;96928.03;5068109;28;20052;-78
2022/02/13 00:35:12;;;;;;;10.75;6.22;;;;;;;-0.43;71.20;96923.38;5067052;28;20080;-79
2022/02/13 00:37:39;;;;;;;10.60;5.78;;;;;;;-0.42;71.02;96919.66;5067620;28;20044;-79
2022/02/13 00:40:07;;;;;;;9.82;5.65;;;;;;;-0.46;71.28;96926.53;5067008;28;20052;-78
2022/02/13 00:42:33;;;;;;;9.57;5.25;;;;;;;-0.46;70.92;96926.53;5067220;28;20056;-78
2022/02/13 00:45:00;;;;;;;8.02;4.93;;;;;;;-0.43;70.21;96926.06;5067413;28;20424;-78
2022/02/13 00:47:26;;;;;;;9.98;5.05;;;;;;;-0.45;68.90;96922.00;5066266;28;20037;-78
2022/02/13 00:49:53;;;;;;;11.63;5.10;;;;;;;-0.54;68.82;96930.38;5067591;28;20055;-78
2022/02/13 00:52:21;;;;;;;12.93;5.15;;;;;;;-0.61;70.12;96923.53;5066410;28;20585;-78
2022/02/13 00:54:47;;;;;;;12.15;5.55;;;;;;;-0.66;70.49;96931.44;5067742;28;20053;-78
2022/02/13 00:57:14;;;;;;;12.68;5.72;;;;;;;-0.67;70.96;96921.78;5066407;28;20044;-79
2022/02/13 00:59:40;;;;;;;9.38;5.13;;;;;;;-0.59;70.04;96924.91;5067313;28;20500;-78
2022/02/13 01:02:06;;;;;;;9.57;4.38;;;;;;;-0.65;69.69;96919.69;5066567;28;20056;-79
2022/02/13 01:04:33;;;;;;;10.75;4.95;;;;;;;-0.65;70.05;96925.03;5066508;28;20048;-79
2022/02/13 01:06:59;;;;;;;8.82;4.57;;;;;;;-0.64;70.24;96926.66;5067058;28;20055;-78
2022/02/13 01:09:28;;;;;;;11.73;5.15;;;;;;;-0.65;70.00;96925.03;5065858;28;20102;-78
2022/02/13 01:11:54;;;;;;;9.57;5.10;;;;;;;-0.69;70.23;96921.19;5067659;28;20068;-78
2022/02/13 01:14:20;;;;;;;8.85;5.40;;;;;;;-0.76;71.12;96920.50;5065376;28;20059;-78
2022/02/13 01:16:47;;;;;;;9.93;4.38;;;;;;;-0.73;70.91;96922.69;5067610;28;20060;-78
2022/02/13 01:19:13;;;;;;;8.27;4.75;;;;;;;-0.77;71.18;96929.56;5065500;28;20048;-78
2022/02/13 01:21:40;;;;;;;11.27;5.00;;;;;;;-0.81;71.51;96922.00;5067196;28;20052;-78
2022/02/13 01:24:07;;;;;;;10.50;4.60;;;;;;;-0.77;71.36;96913.53;5066127;28;20558;-78
2022/02/13 01:26:35;;;;;;;12.55;5.15;;;;;;;-0.82;71.14;96915.03;5065946;28;20045;-78
2022/02/13 01:29:01;;;;;;;8.43;5.13;;;;;;;-0.89;71.29;96911.66;5066592;28;20055;-79
2022/02/13 01:31:28;;;;;;;7.95;5.10;;;;;;;-0.85;71.03;96917.34;5066305;28;20056;-79
2022/02/13 01:33:55;;;;;;;8.57;4.85;;;;;;;-0.87;71.10;96914.91;5067122;28;20050;-78
2022/02/13 01:36:21;;;;;;;13.52;5.22;;;;;;;-0.85;71.19;96912.00;5065531;28;20514;-78
2022/02/13 01:38:48;;;;;;;8.57;4.80;;;;;;;-0.85;71.32;96906.66;5066915;28;20044;-77
2022/02/13 01:41:14;;;;;;;9.10;4.80;;;;;;;-0.81;71.14;96913.97;5065580;28;20048;-78
2022/02/13 01:43:42;;;;;;;10.02;4.85;;;;;;;-0.83;70.75;96909.91;5066399;28;20081;-78
2022/02/13 01:46:09;;;;;;;8.02;4.72;;;;;;;-0.89;71.11;96911.66;5066120;28;20071;-78
2022/02/13 01:48:35;;;;;;;9.35;5.07;;;;;;;-0.89;70.91;96900.97;5066110;28;20131;-78
2022/02/13 01:51:04;;;;;;;11.15;5.10;;;;;;;-0.93;72.15;96904.31;5065906;28;20534;-75
2022/02/13 01:53:31;;;;;;;9.55;4.93;;;;;;;-0.93;72.11;96910.47;5066093;28;20052;-78
2022/02/13 01:56:00;;;;;;;12.57;5.57;;;;;;;-0.91;71.58;96908.38;5066599;28;20701;-78
2022/02/13 01:58:27;;;;;;;10.68;5.40;;;;;;;-0.93;71.46;96907.81;5064847;28;20075;-81
2022/02/13 02:00:56;;;;;;;10.65;5.43;;;;;;;-1.05;71.93;96899.75;5066574;28;20568;-78
2022/02/13 02:03:22;;;;;;;8.02;4.95;;;;;;;-1.03;72.23;96898.75;5065223;28;20059;-79
2022/02/13 02:05:49;;;;;;;10.77;5.50;;;;;;;-1.06;71.94;96892.78;5066564;28;20056;-79
2022/02/13 02:08:16;;;;;;;11.25;5.25;;;;;;;-1.14;72.76;96892.34;5064682;28;20066;-79
2022/02/13 02:10:42;;;;;;;7.78;4.95;;;;;;;-1.13;72.92;96899.31;5066454;28;20056;-79
2022/02/13 02:13:09;;;;;;;10.57;4.97;;;;;;;-1.05;71.98;96891.75;5065853;28;20052;-78
2022/02/13 02:15:35;;;;;;;12.00;4.50;;;;;;;-1.10;72.00;96888.13;5065451;28;20045;-79
2022/02/13 02:18:03;;;;;;;8.77;4.57;;;;;;;-1.02;71.78;96884.31;5065904;28;20059;-79
2022/02/13 02:20:31;;;;;;;10.70;4.75;;;;;;;-1.02;71.64;96887.00;5065513;28;20052;-79
2022/02/13 02:23:00;;;;;;;7.55;4.75;;;;;;;-1.15;72.33;96880.00;5066406;28;20471;-78
2022/02/13 02:25:26;;;;;;;11.82;4.95;;;;;;;-1.21;72.76;96881.72;5065269;28;20104;-79
2022/02/13 02:27:53;;;;;;;9.18;4.32;;;;;;;-1.14;72.67;96887.00;5066352;28;20049;-78
2022/02/13 02:30:19;;;;;;;8.77;4.47;;;;;;;-1.13;73.00;96888.63;5064904;28;20049;-78
2022/02/13 02:32:46;;;;;;;8.50;4.70;;;;;;;-1.12;72.99;96884.88;5066160;28;20404;-78
2022/02/13 02:35:17;;;;;;;12.77;4.30;;;;;;;-1.11;73.17;96886.50;5064417;28;20049;-78
2022/02/13 02:37:43;;;;;;;9.20;4.88;;;;;;;-1.11;73.05;96878.50;5068264;28;20131;-79
2022/02/13 02:40:15;;;;;;;9.15;4.50;;;;;;;-1.10;72.88;96890.81;5069615;28;20052;-78
2022/02/13 02:42:42;;;;;;;8.50;4.78;;;;;;;-1.15;72.53;96886.19;5069718;28;20048;-79
2022/02/13 02:45:13;;;;;;;9.65;4.50;;;;;;;-1.11;72.50;96881.97;5069117;28;20511;-79
2022/02/13 02:47:40;;;;;;;7.70;4.30;;;;;;;-1.17;72.07;96887.44;5069103;28;20105;-78
2022/02/13 02:50:07;;;;;;;7.45;4.43;;;;;;;-1.25;71.72;96879.75;5069876;28;20052;-79
2022/02/13 02:52:34;;;;;;;8.73;4.40;;;;;;;-1.32;71.64;96879.84;5069188;28;20131;-78
2022/02/13 02:55:01;;;;;;;9.48;4.40;;;;;;;-1.36;71.65;96887.53;5069574;28;20058;-79
2022/02/13 02:57:29;;;;;;;7.80;4.53;;;;;;;-1.47;72.16;96877.63;5068793;28;20056;-78
2022/02/13 02:59:55;;;;;;;9.55;4.53;;;;;;;-1.44;72.80;96881.69;5069270;28;20052;-79
2022/02/13 03:02:21;;;;;;;8.60;4.53;;;;;;;-1.51;72.80;96876.47;5069332;28;20052;-78
2022/02/13 03:04:48;;;;;;;8.32;4.47;;;;;;;-1.50;73.22;96891.44;5069371;28;20056;-79
2022/02/13 03:07:14;;;;;;;6.65;3.80;;;;;;;-1.54;73.02;96879.56;5069127;28;20060;-79
2022/02/13 03:09:41;;;;;;;6.70;4.13;;;;;;;-1.50;72.81;96883.44;5068603;28;20063;-78
2022/02/13 03:12:08;;;;;;;10.80;5.18;;;;;;;-1.56;72.19;96879.00;5069530;28;20051;-77
2022/02/13 03:14:36;;;;;;;8.07;4.75;;;;;;;-1.51;72.46;96881.81;5068074;28;20048;-78
2022/02/13 03:17:06;;;;;;;7.72;4.07;;;;;;;-1.48;72.14;96876.00;5068988;28;20561;-77
2022/02/13 03:19:33;;;;;;;8.82;4.60;;;;;;;-1.51;72.52;96886.31;5068788;28;20127;-78
2022/02/13 03:21:59;;;;;;;8.80;4.22;;;;;;;-1.52;72.10;96882.00;5069322;28;20056;-79
2022/02/13 03:24:26;;;;;;;8.30;4.35;;;;;;;-1.56;72.60;96879.00;5068462;28;20491;-79
2022/02/13 03:26:53;;;;;;;13.32;4.35;;;;;;;-1.56;72.83;96884.34;5050627;28;20087;-78
2022/02/13 03:29:19;;;;;;;7.63;4.35;;;;;;;-1.63;73.46;96875.59;5068564;28;20045;-80
2022/02/13 03:31:48;;;;;;;7.25;4.30;;;;;;;-1.61;73.48;96874.34;5068474;28;20060;-78
2022/02/13 03:34:15;;;;;;;9.25;4.00;;;;;;;-1.57;72.88;96872.00;5068886;28;20143;-78
2022/02/13 03:36:41;;;;;;;7.85;4.40;;;;;;;-1.60;73.27;96867.16;5068472;28;20060;-79
2022/02/13 03:39:08;;;;;;;8.63;4.38;;;;;;;-1.51;73.33;96871.13;5068411;28;20056;-78
2022/02/13 03:41:34;;;;;;;7.75;3.90;;;;;;;-1.47;72.56;96872.28;5065749;28;20122;-78
2022/02/13 03:44:01;;;;;;;8.57;3.90;;;;;;;-1.52;72.29;96869.47;5067858;28;20044;-78
2022/02/13 03:46:28;;;;;;;7.20;3.55;;;;;;;-1.54;72.79;96871.56;5068390;28;20427;-78
2022/02/13 03:48:56;;;;;;;5.47;3.33;;;;;;;-1.45;72.28;96872.88;5067228;28;20067;-78
2022/02/13 03:51:22;;;;;;;8.02;4.25;;;;;;;-1.37;71.55;96883.22;5068534;28;20498;-79
2022/02/13 03:53:49;;;;;;;7.82;3.78;;;;;;;-1.39;70.96;96874.63;5068040;28;20061;-78
2022/02/13 03:56:15;;;;;;;10.07;3.90;;;;;;;-1.43;71.15;96883.31;5068305;28;20048;-78
2022/02/13 03:58:42;;;;;;;7.18;3.92;;;;;;;-1.44;70.96;96877.16;5067628;28;20577;-79
2022/02/13 04:01:08;;;;;;;9.27;4.20;;;;;;;-1.51;71.42;96871.13;5068407;28;20048;-77
2022/02/13 04:03:35;;;;;;;8.27;3.85;;;;;;;-1.53;71.44;96872.38;5067721;28;20044;-78
2022/02/13 04:06:03;;;;;;;7.65;4.20;;;;;;;-1.58;71.87;96871.19;5068835;28;20044;-78
2022/02/13 04:08:29;;;;;;;7.95;4.05;;;;;;;-1.62;72.15;96870.06;5068146;28;20511;-78
2022/02/13 04:10:58;;;;;;;6.55;4.13;;;;;;;-1.65;72.68;96869.69;5068211;28;20049;-77
2022/02/13 04:13:25;;;;;;;8.68;3.72;;;;;;;-1.60;72.28;96880.50;5067405;28;20102;-78
2022/02/13 04:15:51;;;;;;;9.02;4.00;;;;;;;-1.69;72.14;96873.84;5067872;28;20392;-78
2022/02/13 04:18:18;;;;;;;6.95;3.40;;;;;;;-1.69;72.32;96874.66;5067905;28;20049;-78
2022/02/13 04:20:45;;;;;;;4.80;3.42;;;;;;;-1.67;72.29;96871.75;5067403;28;20052;-78
2022/02/13 04:23:13;;;;;;;6.15;3.20;;;;;;;-1.66;71.88;96868.06;5068523;28;20052;-78
2022/02/13 04:25:40;;;;;;;6.38;3.70;;;;;;;-1.71;71.81;96876.75;5067638;28;20048;-78
2022/02/13 04:28:07;;;;;;;6.70;3.85;;;;;;;-1.66;71.87;96874.22;5067757;28;20052;-78
2022/02/13 04:30:33;;;;;;;5.57;3.38;;;;;;;-1.73;71.85;96867.31;5067773;28;20052;-78
2022/02/13 04:33:00;;;;;;;6.50;3.75;;;;;;;-1.73;72.11;96873.47;5067838;28;20049;-78
2022/02/13 04:35:28;;;;;;;7.05;3.72;;;;;;;-1.78;72.50;96864.50;5067360;28;20754;-78
2022/02/13 04:37:55;;;;;;;7.32;3.50;;;;;;;-1.74;72.54;96865.69;5067229;28;20072;-78
2022/02/13 04:40:24;;;;;;;5.45;3.00;;;;;;;-1.71;71.86;96859.91;5067440;28;20063;-77
2022/02/13 04:42:50;;;;;;;7.05;3.60;;;;;;;-1.71;72.19;96857.25;5066856;28;20052;-79
2022/02/13 04:45:17;;;;;;;6.30;3.20;;;;;;;-1.69;72.48;96860.50;5067541;28;20148;-78
2022/02/13 04:47:44;;;;;;;7.28;3.22;;;;;;;-1.64;72.07;96860.63;5066899;28;20048;-78
2022/02/13 04:50:10;;;;;;;5.63;3.10;;;;;;;-1.65;72.44;96854.47;5067512;28;20049;-78
2022/02/13 04:52:37;;;;;;;7.72;3.10;;;;;;;-1.62;72.50;96847.84;5067044;28;20507;-78
2022/02/13 04:55:04;;;;;;;6.88;3.40;;;;;;;-1.58;72.18;96860.50;5066693;28;20044;-78
2022/02/13 04:57:32;;;;;;;6.63;3.53;;;;;;;-1.53;71.76;96851.00;5067303;28;20047;-78
2022/02/13 04:59:59;;;;;;;4.75;3.13;;;;;;;-1.50;71.62;96846.03;5066756;28;20418;-78
2022/02/13 05:02:25;;;;;;;7.53;4.00;;;;;;;-1.47;71.65;96842.88;5066781;28;20053;-78
2022/02/13 05:04:52;;;;;;;7.85;3.20;;;;;;;-1.52;71.65;96850.78;5066691;28;20044;-78
2022/02/13 05:07:18;;;;;;;6.70;3.45;;;;;;;-1.50;71.61;96846.03;5067269;28;20514;-78
2022/02/13 05:09:44;;;;;;;5.82;3.15;;;;;;;-1.52;71.68;96842.75;5066264;28;20075;-77
2022/02/13 05:12:11;;;;;;;6.00;3.47;;;;;;;-1.57;72.18;96839.97;5067213;28;20041;-78
2022/02/13 05:14:40;;;;;;;7.22;3.53;;;;;;;-1.59;72.56;96831.38;5066356;28;20056;-78
2022/02/13 05:17:07;;;;;;;7.15;3.10;;;;;;;-1.61;72.24;96822.78;5066840;28;20053;-79
2022/02/13 05:19:33;;;;;;;9.05;3.03;;;;;;;-1.60;71.80;96819.06;5066592;28;20049;-77
2022/02/13 05:22:00;;;;;;;5.00;2.75;;;;;;;-1.60;71.67;96817.22;5067003;28;20068;-78
2022/02/13 05:24:26;;;;;;;4.85;2.90;;;;;;;-1.61;70.95;96820.13;5066120;28;20048;-78
2022/02/13 05:26:53;;;;;;;4.45;2.80;;;;;;;-1.59;70.79;96820.69;5066631;28;20060;-77
2022/02/13 05:29:21;;;;;;;5.88;2.85;;;;;;;-1.56;70.46;96820.25;5066475;28;20056;-78
2022/02/13 05:31:49;;;;;;;4.47;2.25;;;;;;;-1.49;70.00;96818.28;5066222;28;20052;-78
2022/02/13 05:34:16;;;;;;;6.28;2.70;;;;;;;-1.46;69.74;96815.16;5066364;28;20052;-78
2022/02/13 05:36:43;;;;;;;4.57;2.60;;;;;;;-1.40;69.27;96808.88;5066185;28;20500;-80
2022/02/13 05:39:10;;;;;;;5.72;2.50;;;;;;;-1.37;69.13;96819.09;5065934;28;20576;-78
2022/02/13 05:41:36;;;;;;;4.03;2.35;;;;;;;-1.31;68.58;96814.69;5066180;28;20057;-77
2022/02/13 05:44:03;;;;;;;5.53;2.50;;;;;;;-1.27;67.93;96828.41;5065727;28;20970;-78
2022/02/13 05:46:30;;;;;;;4.05;2.17;;;;;;;-1.28;67.40;96816.09;5066711;28;20071;-78
2022/02/13 05:48:58;;;;;;;4.68;2.70;;;;;;;-1.27;67.25;96828.41;5066086;28;20417;-77
2022/02/13 05:51:26;;;;;;;10.45;3.03;;;;;;;-1.33;67.14;96830.97;5066141;28;20052;-78
2022/02/13 05:53:53;;;;;;;6.43;2.70;;;;;;;-1.40;67.92;96835.59;5065403;28;20048;-78
2022/02/13 05:56:19;;;;;;;4.35;2.30;;;;;;;-1.47;68.42;96828.72;5066263;28;20044;-77
2022/02/13 05:58:46;;;;;;;7.18;2.63;;;;;;;-1.44;68.28;96834.44;5065241;28;20059;-78
2022/02/13 06:01:14;;;;;;;4.60;2.47;;;;;;;-1.48;68.26;96827.91;5066174;28;20702;-78
2022/02/13 06:03:40;;;;;;;5.93;2.67;;;;;;;-1.47;68.23;96829.53;5065678;28;20052;-78
2022/02/13 06:06:08;;;;;;;5.13;2.50;;;;;;;-1.48;68.13;96833.25;5065904;28;20052;-77
2022/02/13 06:08:34;;;;;;;5.20;2.55;;;;;;;-1.52;68.58;96836.59;5065737;28;20064;-78
2022/02/13 06:11:01;;;;;;;8.00;2.55;;;;;;;-1.54;68.26;96836.03;5065599;28;20052;-77
2022/02/13 06:13:27;;;;;;;5.85;2.65;;;;;;;-1.64;69.01;96836.59;5065564;28;20063;-78
2022/02/13 06:15:54;;;;;;;4.88;2.40;;;;;;;-1.65;69.39;96837.63;5065455;28;20048;-77
2022/02/13 06:18:21;;;;;;;4.50;2.40;;;;;;;-1.65;68.86;96843.78;5065874;28;20052;-78
2022/02/13 06:20:47;;;;;;;7.82;2.60;;;;;;;-1.64;68.62;96841.94;5065312;28;20052;-77
2022/02/13 06:23:15;;;;;;;4.55;2.33;;;;;;;-1.59;68.32;96836.72;5065907;28;20139;-78
2022/02/13 06:25:42;;;;;;;7.22;2.47;;;;;;;-1.59;68.22;96836.72;5065230;28;20103;-77
2022/02/13 06:28:08;;;;;;;5.03;2.53;;;;;;;-1.47;68.15;96844.75;5065741;28;20423;-78
2022/02/13 06:30:35;;;;;;;4.60;2.35;;;;;;;-1.41;67.65;96833.97;5065772;28;20049;-78
2022/02/13 06:33:03;;;;;;;6.70;2.80;;;;;;;-1.36;67.56;96831.44;5065753;28;20049;-77
2022/02/13 06:35:29;;;;;;;4.97;2.30;;;;;;;-1.30;67.57;96828.88;5065532;28;20049;-78
2022/02/13 06:37:56;;;;;;;5.85;3.10;;;;;;;-1.25;66.93;96832.50;5065239;28;20061;-78
2022/02/13 06:40:24;;;;;;;5.20;2.60;;;;;;;-1.27;66.91;96825.72;5065523;28;20500;-78
2022/02/13 06:42:50;;;;;;;4.25;2.45;;;;;;;-1.18;66.54;96833.19;5065087;28;20384;-78
2022/02/13 06:45:17;;;;;;;3.95;2.42;;;;;;;-1.15;66.16;96831.88;5065614;28;20048;-79
2022/02/13 06:47:43;;;;;;;5.32;2.50;;;;;;;-1.10;65.63;96834.69;5065067;28;20056;-77
2022/02/13 06:50:11;;;;;;;5.68;2.40;;;;;;;-1.11;65.21;96838.41;5065524;28;20056;-78
2022/02/13 06:52:38;;;;;;;4.65;2.20;;;;;;;-1.08;64.75;96838.75;5065396;28;20059;-77
2022/02/13 06:55:05;;;;;;;5.10;2.05;;;;;;;-1.05;64.63;96826.78;5064703;28;20083;-78
2022/02/13 06:57:33;;;;;;;3.42;1.83;;;;;;;-0.95;64.09;96832.34;5065601;28;20052;-78
2022/02/13 07:00:00;;;;;;;4.60;2.20;;;;;;;-0.90;63.24;96824.44;5065108;28;20049;-78
2022/02/13 07:02:26;;;;;;;3.65;2.00;;;;;;;-0.83;62.60;96824.34;5065415;28;20106;-78
2022/02/13 07:04:53;;;;;;;5.03;2.30;;;;;;;-0.76;62.27;96830.38;5064808;28;20546;-77
2022/02/13 07:07:19;;;;;;;4.05;1.80;;;;;;;-0.69;62.05;96830.25;5065606;28;20055;-78
2022/02/13 07:09:45;;;;;;;4.88;2.17;;;;;;;-0.58;61.09;96821.38;5064763;28;20795;-78
2022/02/13 07:12:12;;;;;;;5.72;2.70;;;;;;;-0.46;60.50;96824.88;5065222;28;20049;-78
2022/02/13 07:14:42;;;;;;;5.00;2.55;;;;;;;-0.25;59.73;96809.22;5064937;28;20053;-78
2022/02/13 07:17:09;;;;;;;5.05;1.48;;;;;;;-0.13;58.59;96815.34;5065013;28;20052;-78
2022/02/13 07:19:37;;;;;;;4.82;1.90;;;;;;;-0.07;58.56;96822.41;5065193;28;20747;-78
2022/02/13 07:22:04;;;;;;;6.93;2.35;;;;;;;-0.02;58.52;96819.84;5065109;28;20067;-77
2022/02/13 07:24:30;;;;;;;7.88;3.47;;;;;;;0.01;58.31;96821.25;5068920;28;20052;-77
2022/02/13 07:26:57;;;;;;;4.82;2.10;;;;;;;0.08;58.43;96820.03;5068683;28;20072;-78
2022/02/13 07:29:23;;;;;;;4.78;2.00;;;;;;;0.16;57.83;96825.00;5069039;28;20089;-77
2022/02/13 07:31:51;;;;;;;4.00;2.13;;;;;;;0.22;58.18;96821.38;5068418;28;20056;-77
2022/02/13 07:34:18;;;;;;;6.63;2.05;;;;;;;0.30;57.71;96819.34;5068908;28;20059;-78
2022/02/13 07:36:48;;;;;;;4.63;2.13;;;;;;;0.36;57.64;96816.50;5068548;28;20637;-78
2022/02/13 07:39:15;;;;;;;4.35;2.10;;;;;;;0.44;57.07;96818.00;5068541;28;20098;-77
2022/02/13 07:41:41;;;;;;;4.97;2.28;;;;;;;0.49;55.22;96816.19;5068495;28;20063;-79
2022/02/13 07:44:08;;;;;;;3.33;2.28;;;;;;;0.53;55.68;96816.53;5048032;28;20057;-78
2022/02/13 07:46:35;;;;;;;4.80;2.25;;;;;;;0.59;54.95;96810.22;5048937;28;20127;-79
2022/02/13 07:49:05;;;;;;;5.45;2.42;;;;;;;0.66;54.35;96807.34;5048213;28;20049;-78
2022/02/13 07:51:32;;;;;;;5.07;2.05;;;;;;;0.69;54.21;96815.72;5049100;28;20049;-78
2022/02/13 07:53:58;;;;;;;6.75;2.05;;;;;;;0.78;54.35;96810.75;5047881;28;20048;-78
2022/02/13 07:56:25;;;;;;;4.43;2.25;;;;;;;0.83;53.54;96810.03;5048692;28;20049;-78
2022/02/13 07:58:52;;;;;;;4.95;2.30;;;;;;;0.88;54.07;96810.09;5047995;28;20051;-78
2022/02/13 08:01:19;;;;;;;3.88;2.20;;;;;;;0.94;53.46;96801.06;5048831;28;20044;-78
2022/02/13 08:03:45;;;;;;;5.95;2.05;;;;;;;1.04;54.03;96794.03;5048250;28;20128;-78
2022/02/13 08:06:15;;;;;;;3.65;2.08;;;;;;;1.16;54.45;96798.47;5048203;28;20076;-78
2022/02/13 08:08:42;;;;;;;4.63;2.00;;;;;;;1.24;54.20;96796.16;5048060;28;20144;-77
2022/02/13 08:11:09;;;;;;;4.25;2.00;;;;;;;1.37;53.41;96788.81;5047717;28;20053;-78
2022/02/13 08:13:35;;;;;;;2.95;1.67;;;;;;;1.46;53.25;96793.50;5065375;28;20049;-78
2022/02/13 08:16:02;;;;;;;5.38;2.20;;;;;;;1.55;53.12;96791.19;5068977;28;20049;-78
2022/02/13 08:18:29;;;;;;;4.38;1.83;;;;;;;1.64;52.49;96789.69;5068103;28;20051;-78
2022/02/13 08:20:55;;;;;;;5.68;2.20;;;;;;;1.74;52.11;96784.44;5067839;28;20055;-78
2022/02/13 08:23:23;;;;;;;3.78;2.03;;;;;;;1.85;51.77;96781.88;5068090;28;20059;-78
2022/02/13 08:25:51;;;;;;;4.20;1.80;;;;;;;1.94;52.42;96775.81;5067665;28;20051;-79
2022/02/13 08:28:18;;;;;;;7.20;1.98;;;;;;;2.12;52.36;96773.81;5067524;28;20132;-77
2022/02/13 08:30:45;;;;;;;5.15;2.10;;;;;;;2.27;51.90;96777.47;5067065;28;20048;-78
2022/02/13 08:33:11;;;;;;;3.95;1.90;;;;;;;2.49;51.39;96773.91;5067236;28;20048;-77
2022/02/13 08:35:38;;;;;;;4.90;2.35;;;;;;;3.05;49.03;96764.38;5067359;28;20052;-78
2022/02/13 08:38:05;;;;;;;3.45;1.98;;;;;;;3.64;49.43;96758.72;5066828;28;20059;-78
2022/02/13 08:40:34;;;;;;;4.10;1.85;;;;;;;4.15;46.57;96761.56;5068492;28;20049;-79
2022/02/13 08:43:01;;;;;;;4.07;2.10;;;;;;;4.65;45.06;96757.31;5067147;28;20060;-79
2022/02/13 08:45:28;;;;;;;5.65;1.90;;;;;;;5.19;44.38;96756.72;5067733;28;20053;-79
2022/02/13 08:47:56;;;;;;;3.25;1.63;;;;;;;5.73;42.55;96757.88;5067254;28;20057;-78
2022/02/13 08:50:22;;;;;;;6.38;2.10;;;;;;;6.10;43.16;96754.75;5067586;28;20072;-79
2022/02/13 08:52:49;;;;;;;2.95;1.80;;;;;;;6.43;40.92;96752.41;5067498;28;20048;-78
2022/02/13 08:55:16;;;;;;;4.00;2.28;;;;;;;6.64;41.49;96755.75;5067337;28;20052;-79
2022/02/13 08:57:45;;;;;;;3.30;1.95;;;;;;;6.92;39.55;96744.13;5067963;28;20063;-79
2022/02/13 09:00:13;;;;;;;4.93;2.50;;;;;;;7.15;38.98;96747.16;5066998;28;20049;-76
2022/02/13 09:02:40;;;;;;;5.18;2.15;;;;;;;7.30;39.11;96739.69;5068457;28;20044;-76
2022/02/13 09:05:08;;;;;;;4.25;2.30;;;;;;;7.43;39.58;96743.63;5066373;28;20682;-76
2022/02/13 09:07:36;;;;;;;4.60;2.10;;;;;;;7.43;40.04;96742.81;5068170;28;20083;-79
2022/02/13 09:10:03;;;;;;;5.93;2.22;;;;;;;7.58;39.13;96746.16;5066436;28;20423;-75
2022/02/13 09:12:30;;;;;;;4.22;1.95;;;;;;;7.66;39.24;96741.19;5067536;28;20057;-77
2022/02/13 09:14:59;;;;;;;5.40;2.20;;;;;;;7.56;40.16;96742.91;5066916;28;20515;-77
2022/02/13 09:17:25;;;;;;;5.07;3.05;;;;;;;7.50;39.65;96737.84;5067163;28;20049;-77
2022/02/13 09:19:52;;;;;;;3.60;2.03;;;;;;;7.62;40.60;96735.53;5067376;28;20075;-77
2022/02/13 09:22:19;;;;;;;4.78;2.05;;;;;;;7.87;40.35;96730.91;5066613;28;20051;-76
2022/02/13 09:24:45;;;;;;;3.60;2.25;;;;;;;8.06;39.15;96729.81;5067242;28;20044;-77
2022/02/13 09:27:12;;;;;;;3.97;2.25;;;;;;;8.03;39.69;96730.41;5065969;28;20139;-76
2022/02/13 09:29:38;;;;;;;8.60;2.25;;;;;;;7.83;38.61;96730.69;5067512;28;20057;-78
2022/02/13 09:32:08;;;;;;;3.58;1.80;;;;;;;7.98;37.60;96722.31;5065976;28;20056;-76
2022/02/13 09:34:35;;;;;;;5.05;2.22;;;;;;;8.17;37.92;96726.97;5067728;28;20083;-78
2022/02/13 09:37:02;;;;;;;2.95;1.80;;;;;;;8.32;37.13;96721.31;5066740;28;20059;-78
2022/02/13 09:39:29;;;;;;;4.15;1.90;;;;;;;8.55;37.53;96716.91;5066623;28;20048;-78
2022/02/13 09:41:56;;;;;;;3.97;1.60;;;;;;;8.87;36.97;96714.22;5066679;28;20127;-81
2022/02/13 09:44:23;;;;;;;4.53;2.13;;;;;;;9.29;37.82;96711.56;5066285;28;20056;-77
2022/02/13 09:46:50;;;;;;;4.82;2.42;;;;;;;9.84;36.10;96722.44;5066282;28;20045;-77
2022/02/13 09:49:19;;;;;;;5.18;1.60;;;;;;;10.20;33.93;96706.16;5065994;28;20442;-78
2022/02/13 09:51:46;;;;;;;2.95;1.88;;;;;;;10.52;32.12;96705.16;5067586;28;20049;-77
2022/02/13 09:54:13;;;;;;;3.45;1.92;;;;;;;10.50;32.54;96706.59;5065673;28;20052;-76
2022/02/13 09:56:40;;;;;;;2.28;1.58;;;;;;;10.50;33.37;96704.69;5067376;28;20056;-76
2022/02/13 09:59:08;;;;;;;2.92;1.70;;;;;;;10.91;33.26;96706.38;5065512;28;20044;-77
2022/02/13 10:01:37;;;;;;;4.85;1.73;;;;;;;11.31;32.51;96706.44;5067110;28;20052;-76
2022/02/13 10:04:04;;;;;;;3.05;1.73;;;;;;;11.89;33.95;96697.19;5066072;28;20044;-76
2022/02/13 10:06:35;;;;;;;4.63;1.88;;;;;;;12.38;32.05;96700.66;5066349;28;20052;-76
2022/02/13 10:09:02;;;;;;;3.20;1.63;;;;;;;12.74;31.53;96687.47;5066454;28;20051;-79
2022/02/13 10:11:30;;;;;;;2.90;2.03;;;;;;;12.94;29.46;96687.88;5066650;28;20071;-79
2022/02/13 10:13:58;;;;;;;3.17;1.55;;;;;;;13.03;28.95;96678.53;5067499;28;20078;-79
2022/02/13 10:16:28;;;;;;;3.13;1.60;;;;;;;13.14;28.75;96670.78;5066373;28;20044;-79
2022/02/13 10:18:57;;;;;;;3.55;1.90;;;;;;;13.29;28.33;96678.50;5067674;28;20060;-79
2022/02/13 10:21:34;;;;;;;3.38;1.80;;;;;;;13.12;28.09;96678.53;5067721;28;20045;-79
2022/02/13 10:24:25;;;;;;;3.75;1.63;;;;;;;13.19;28.27;96672.53;5068908;28;20474;-76
2022/02/13 10:27:05;;;;;;;3.47;2.10;;;;;;;13.30;28.22;96666.41;5065910;28;20490;-78
2022/02/13 10:29:33;;;;;;;5.60;2.08;;;;;;;13.36;28.14;96660.75;5064633;28;20052;-77
2022/02/13 10:32:11;;;;;;;2.67;1.48;;;;;;;13.37;28.56;96657.72;5066118;28;20489;-77
2022/02/13 10:34:38;;;;;;;4.85;1.70;;;;;;;13.34;27.86;96657.56;5065776;28;20435;-77
2022/02/13 10:37:06;;;;;;;2.60;1.40;;;;;;;13.32;27.53;96655.97;5065949;28;20084;-77
2022/02/13 10:39:44;;;;;;;3.20;1.60;;;;;;;13.27;27.44;96650.69;5064264;28;20049;-77
2022/02/13 10:42:12;;;;;;;2.72;1.52;;;;;;;13.23;27.16;96641.53;5065392;28;20045;-79
2022/02/13 10:44:38;;;;;;;2.85;1.38;;;;;;;13.10;27.21;96642.50;5066341;28;20132;-77
2022/02/13 10:47:22;;;;;;;3.03;1.40;;;;;;;13.23;27.50;96630.59;5064711;28;20056;-78
2022/02/13 10:49:48;;;;;;;4.03;1.48;;;;;;;13.06;28.52;96630.63;5066779;28;20067;-78
2022/02/13 10:52:17;;;;;;;3.58;1.75;;;;;;;13.00;28.43;96627.28;5064751;28;20087;-79
2022/02/13 10:54:44;;;;;;;2.88;1.58;;;;;;;13.11;27.87;96622.25;5066546;28;20059;-79
2022/02/13 10:57:11;;;;;;;3.30;1.60;;;;;;;13.30;27.29;96611.72;5065029;28;20143;-77
2022/02/13 10:59:38;;;;;;;3.58;1.42;;;;;;;13.37;27.33;96603.03;5069999;28;20052;-77
2022/02/13 11:02:05;;;;;;;4.15;1.70;;;;;;;13.35;27.48;96599.00;5069122;28;20048;-77
2022/02/13 11:04:34;;;;;;;6.00;2.47;;;;;;;13.11;27.58;96594.09;5069329;28;20057;-76
2022/02/13 11:07:00;;;;;;;3.53;1.67;;;;;;;12.97;28.45;96586.91;5069342;28;20048;-78
2022/02/13 11:09:30;;;;;;;4.93;1.95;;;;;;;13.10;28.62;96582.34;5068944;28;20139;-78
2022/02/13 11:11:58;;;;;;;3.42;1.60;;;;;;;13.20;29.59;96576.50;5069638;28;20047;-78
2022/02/13 11:14:28;;;;;;;3.80;1.23;;;;;;;13.21;28.11;96572.69;5068673;28;20131;-77
2022/02/13 11:16:56;;;;;;;4.55;1.73;;;;;;;13.06;28.25;96570.47;5069966;28;20579;-77
2022/02/13 11:19:23;;;;;;;4.80;1.73;;;;;;;13.02;28.87;96566.78;5068215;28;20048;-76
2022/02/13 11:21:50;;;;;;;2.85;1.73;;;;;;;12.93;27.84;96563.28;5069536;28;20059;-77
2022/02/13 11:24:25;;;;;;;3.83;1.70;;;;;;;12.65;29.11;96555.50;5068356;28;20052;-77
2022/02/13 11:26:53;;;;;;;5.40;1.80;;;;;;;12.47;29.78;96549.28;5069560;28;20056;-79
2022/02/13 11:29:19;;;;;;;3.55;1.60;;;;;;;12.43;29.98;96544.81;5068473;28;20048;-79
2022/02/13 11:31:50;;;;;;;4.55;1.50;;;;;;;12.27;29.46;96548.06;5068479;28;20048;-78
2022/02/13 11:34:42;;;;;;;5.43;1.55;;;;;;;12.25;31.26;96536.63;5068609;28;20060;-76